ウルムチ の空港の天気 - METARとTAF

ウルムチ地窩堡国際空港 ( ZWWW / URC ) - 中国 新疆ウイグル自治区ウルムチ市
飛行場実況気象(Metar)
観測時間10/22 19:00 CST (10/22 11:00 UTC)
風向・風速北北西 2m/s
視程10km以上
天気現象
なし
気温15℃
湿度21%
気圧1016hPa
METARZWWW 221100Z 34002MPS CAVOK 15/M07 Q1016 NOSIG
過去の天気等 Google飛行場航空写真 Wunderground天気予報

過去48時間のMETAR

飛行場予報(TAF)
発表時間: 10/22 11:01 CST (10/22 03:01 UTC)
予報対象時間: 22日14時 CST ~ 23日14時 CST
風向・風速北 4m/s
視程10km以上
なし
22日21時 CST ~ 22日22時 CST に徐々に
風向・風速南 4m/s
23日10時 CST ~ 23日11時 CST に徐々に
風向・風速北 4m/s
TAF ZWWW 220301Z 2206/2306 36004MPS CAVOK TX17/2209Z TN06/2223Z
BECMG 2213/2214 18004MPS
BECMG 2302/2303 36004MPS